Aviation Digital Data Service (ADDS)

Output produced by METARs form (1220 UTC 16 July 2019)
found at http://www.aviationweather.gov/metar/data/
 
KUAO 161124Z 1612/1712 00000KT P6SM SCT020 OVC040 
     TEMPO 1614/1617 BKN020 
     FM162300 28004KT P6SM BKN050
       
KUES 161122Z 1612/1712 22006KT P6SM SCT090 
     TEMPO 1612/1615 BKN020 
     FM161800 20008KT P6SM BKN070 
     FM170000 VRB04KT P6SM SCT120 
     FM170300 00000KT P6SM BKN100 
     FM170600 VRB03KT 6SM BR BKN090
       
KUIN 161120Z 1612/1712 11005KT 6SM -SHRA BR OVC015 
     TEMPO 1612/1614 5SM BR BKN005 
     FM161500 VRB04KT P6SM BKN007 
     FM161900 VRB02KT P6SM BKN025 
     FM162100 VRB03KT P6SM SCT040
       
KUKI 161124Z 1612/1712 VRB04KT P6SM SKC 
     FM162100 32010G18KT P6SM SKC 
     FM170200 VRB05KT P6SM SKC
       
KUNV 161208Z 1612/1712 VRB03KT P6SM BKN150 
     FM161800 24005KT P6SM VCTS BKN050CB 
     TEMPO 1618/1622 3SM TSRA OVC025CB 
     FM170000 20004KT P6SM VCSH BKN100 
     FM170600 24003KT P6SM BKN100
       
KUTS 161120Z 1612/1712 18007KT P6SM BKN015 
     FM161400 18008KT P6SM SCT020 
     FM161800 18012KT P6SM SCT045 
     FM170400 17005KT P6SM FEW030 
     FM170900 18005KT P6SM BKN015